createdAt,value
2023-05-10T00:00:48.206Z,16.92
2023-05-10T00:03:15.512Z,22.05
2023-05-10T00:05:42.761Z,17.10
2023-05-10T00:08:09.672Z,22.80
2023-05-10T00:10:37.331Z,25.25
2023-05-10T00:13:04.348Z,25.00
2023-05-10T00:15:35.700Z,21.95
2023-05-10T00:18:02.972Z,23.73
2023-05-10T00:20:29.939Z,21.17
2023-05-10T00:22:57.095Z,20.52
2023-05-10T00:25:24.329Z,18.98
2023-05-10T00:27:51.607Z,26.02
2023-05-10T00:30:19.336Z,24.15
2023-05-10T00:32:46.447Z,20.00
2023-05-10T00:35:13.932Z,23.38
2023-05-10T00:37:41.373Z,32.38
2023-05-10T00:40:09.698Z,29.30
2023-05-10T00:42:37.081Z,28.80
2023-05-10T00:45:05.529Z,32.42
2023-05-10T00:47:32.839Z,37.42
2023-05-10T00:50:03.056Z,31.55
2023-05-10T00:52:31.711Z,33.50
2023-05-10T00:54:59.882Z,23.67
2023-05-10T00:57:27.003Z,20.25
2023-05-10T00:59:54.638Z,21.58
2023-05-10T01:02:21.729Z,32.08
2023-05-10T01:04:48.833Z,24.80
2023-05-10T01:07:16.056Z,25.15
2023-05-10T01:09:43.757Z,27.83
2023-05-10T01:12:12.504Z,23.08
2023-05-10T01:14:39.844Z,20.48
2023-05-10T01:17:08.753Z,24.48
2023-05-10T01:19:38.067Z,19.95
2023-05-10T01:22:57.361Z,20.73
2023-05-10T01:25:45.352Z,21.60
2023-05-10T01:29:00.438Z,23.10
2023-05-10T01:31:36.916Z,19.67
2023-05-10T01:34:09.652Z,23.38
2023-05-10T01:36:43.881Z,18.50
2023-05-10T01:39:16.957Z,22.65
2023-05-10T01:42:07.276Z,19.95
2023-05-10T01:44:43.985Z,18.27
2023-05-10T01:49:51.102Z,17.02
2023-05-10T01:52:21.269Z,15.48
2023-05-10T01:55:00.494Z,18.85
2023-05-10T01:57:33.999Z,23.10
2023-05-10T02:00:04.594Z,17.27
2023-05-10T02:02:45.892Z,18.90
2023-05-10T02:05:16.406Z,18.55
2023-05-10T02:07:44.059Z,21.88
2023-05-10T02:10:12.637Z,20.95
2023-05-10T02:12:43.563Z,18.77
2023-05-10T02:15:14.366Z,22.92
2023-05-10T02:17:43.651Z,17.67
2023-05-10T02:20:12.654Z,15.75
2023-05-10T02:22:41.394Z,22.30
2023-05-10T02:25:10.233Z,18.23
2023-05-10T02:27:38.383Z,11.02
2023-05-10T02:30:08.048Z,17.40
2023-05-10T02:32:36.512Z,12.93
2023-05-10T02:35:04.941Z,13.85
2023-05-10T02:37:33.424Z,15.15
2023-05-10T02:40:01.529Z,13.13
2023-05-10T02:42:32.469Z,10.30
2023-05-10T02:45:02.301Z,11.23
2023-05-10T02:47:31.580Z,11.70
2023-05-10T02:49:58.985Z,15.27
2023-05-10T02:52:34.592Z,10.82
2023-05-10T02:55:08.485Z,13.38
2023-05-10T02:57:39.845Z,14.57
2023-05-10T03:00:07.981Z,15.43
2023-05-10T03:02:35.126Z,13.55
2023-05-10T03:05:02.129Z,13.43
2023-05-10T03:07:32.453Z,20.92
2023-05-10T03:10:05.527Z,17.85
2023-05-10T03:12:37.085Z,17.95
2023-05-10T03:15:06.565Z,16.85
2023-05-10T03:18:10.688Z,15.98
2023-05-10T03:20:44.372Z,18.65
2023-05-10T03:23:51.769Z,21.35
2023-05-10T03:26:24.886Z,22.85
2023-05-10T03:28:53.831Z,18.45
2023-05-10T03:31:21.085Z,22.52
2023-05-10T03:33:52.393Z,17.80
2023-05-10T03:41:18.835Z,14.15
2023-05-10T03:43:45.813Z,17.60
2023-05-10T03:46:12.782Z,16.55
2023-05-10T03:48:40.041Z,11.98
2023-05-10T03:51:07.593Z,14.50
2023-05-10T03:53:34.547Z,18.88
2023-05-10T03:56:02.157Z,20.25
2023-05-10T03:58:29.211Z,20.05
2023-05-10T04:00:56.391Z,18.95
2023-05-10T04:03:24.393Z,13.80
2023-05-10T04:06:03.567Z,18.25
2023-05-10T04:08:30.820Z,18.25
2023-05-10T04:11:09.117Z,15.73
2023-05-10T04:13:37.942Z,18.67
2023-05-10T04:16:05.914Z,16.15
2023-05-10T04:18:33.515Z,18.10
2023-05-10T04:21:03.961Z,19.75
2023-05-10T04:23:32.687Z,33.90
2023-05-10T04:26:04.538Z,25.30
2023-05-10T04:28:34.682Z,23.35
2023-05-10T04:31:03.695Z,27.10
2023-05-10T04:33:31.765Z,24.17
2023-05-10T04:35:58.899Z,22.73
2023-05-10T04:38:27.045Z,26.27
2023-05-10T04:40:55.551Z,29.67
2023-05-10T04:43:22.513Z,11.18
2023-05-10T04:45:49.485Z,9.02
2023-05-10T04:48:16.431Z,25.98
2023-05-10T04:50:43.393Z,14.00
2023-05-10T04:53:10.300Z,10.57
2023-05-10T04:55:37.367Z,14.43
2023-05-10T04:58:04.275Z,17.48
2023-05-10T05:00:31.233Z,11.02
2023-05-10T05:02:58.239Z,23.10
2023-05-10T05:05:25.462Z,12.10
2023-05-10T05:07:52.468Z,23.83
2023-05-10T05:10:22.768Z,14.40
2023-05-10T05:12:50.976Z,15.43
2023-05-10T05:15:19.465Z,9.88
2023-05-10T05:17:46.583Z,12.80
2023-05-10T05:20:14.291Z,11.05
2023-05-10T05:22:42.099Z,16.00
2023-05-10T05:25:11.091Z,7.57
2023-05-10T05:27:37.961Z,18.83
2023-05-10T05:30:05.827Z,9.68
2023-05-10T05:32:32.794Z,6.03
2023-05-10T05:35:00.459Z,9.48
2023-05-10T05:37:27.732Z,8.18
2023-05-10T05:39:56.033Z,17.10
2023-05-10T05:42:23.100Z,9.73
2023-05-10T05:44:50.934Z,10.00
2023-05-10T05:47:20.971Z,7.13
2023-05-10T05:49:49.061Z,9.07
2023-05-10T05:52:19.504Z,16.45
2023-05-10T05:54:46.720Z,11.90
2023-05-10T05:57:15.480Z,7.57
2023-05-10T05:59:45.390Z,11.88
2023-05-10T06:02:14.658Z,10.38
2023-05-10T06:04:44.423Z,10.60
2023-05-10T06:07:11.966Z,9.70
2023-05-10T06:09:40.408Z,11.18
2023-05-10T06:12:07.350Z,8.60
2023-05-10T06:14:34.311Z,10.32
2023-05-10T06:17:01.804Z,6.68
2023-05-10T06:19:29.874Z,11.90
2023-05-10T06:21:57.244Z,10.68
2023-05-10T06:24:24.279Z,6.68
2023-05-10T06:26:51.672Z,7.00
2023-05-10T06:29:18.668Z,11.48
2023-05-10T06:31:45.719Z,13.00
2023-05-10T06:34:13.715Z,6.75
2023-05-10T06:36:41.096Z,14.30
2023-05-10T06:39:08.761Z,11.25
2023-05-10T06:41:35.859Z,13.88
2023-05-10T06:44:03.366Z,19.92
2023-05-10T06:46:33.670Z,14.35
2023-05-10T06:49:01.676Z,9.50
2023-05-10T06:51:29.386Z,8.30
2023-05-10T06:53:56.731Z,17.17
2023-05-10T06:56:23.922Z,5.13
2023-05-10T06:58:50.912Z,6.68
2023-05-10T07:01:19.202Z,7.60
2023-05-10T07:03:46.495Z,16.77
2023-05-10T07:06:29.389Z,7.40
2023-05-10T07:08:56.853Z,8.90
2023-05-10T07:11:24.142Z,7.43
2023-05-10T07:13:51.139Z,7.38
2023-05-10T07:16:18.207Z,9.05
2023-05-10T07:18:49.853Z,3.55
2023-05-10T07:21:16.852Z,4.30
2023-05-10T07:23:45.137Z,12.68
2023-05-10T07:26:12.739Z,6.00
2023-05-10T07:28:40.236Z,4.30
2023-05-10T07:31:07.244Z,6.97
2023-05-10T07:33:34.281Z,4.35
2023-05-10T07:36:01.494Z,7.30
2023-05-10T07:38:28.580Z,5.65
2023-05-10T07:40:55.625Z,4.95
2023-05-10T07:43:22.656Z,7.68
2023-05-10T07:45:49.935Z,6.68
2023-05-10T07:48:16.931Z,7.53
2023-05-10T07:50:43.872Z,15.15
2023-05-10T07:53:11.052Z,6.53
2023-05-10T07:55:37.995Z,8.93
2023-05-10T07:58:05.099Z,6.10
2023-05-10T08:00:32.129Z,7.32
2023-05-10T08:02:59.518Z,7.35
2023-05-10T08:05:26.753Z,5.90
2023-05-10T08:07:53.919Z,3.03
2023-05-10T08:10:21.093Z,4.20
2023-05-10T08:12:48.064Z,7.20
2023-05-10T08:15:15.288Z,7.05
2023-05-10T08:17:42.772Z,9.13
2023-05-10T08:20:10.406Z,2.83
2023-05-10T08:22:37.542Z,5.10
2023-05-10T08:25:04.717Z,6.28
2023-05-10T08:27:31.835Z,5.05
2023-05-10T08:29:58.708Z,8.98
2023-05-10T08:32:25.790Z,4.05
2023-05-10T08:34:52.904Z,6.28
2023-05-10T08:37:21.083Z,6.25
2023-05-10T08:39:50.237Z,4.80
2023-05-10T08:42:22.829Z,3.03
2023-05-10T08:44:50.413Z,3.95
2023-05-10T08:47:19.404Z,6.00
2023-05-10T08:49:52.078Z,6.35
2023-05-10T08:52:19.379Z,5.97
2023-05-10T08:54:46.308Z,4.13
2023-05-10T08:57:13.255Z,7.70
2023-05-10T08:59:51.837Z,9.35
2023-05-10T09:02:22.215Z,5.45
2023-05-10T09:04:50.258Z,7.03
2023-05-10T09:07:17.805Z,2.53
2023-05-10T09:09:45.508Z,3.00
2023-05-10T09:12:14.140Z,4.10
2023-05-10T09:14:41.372Z,3.13
2023-05-10T09:17:08.442Z,5.20
2023-05-10T09:19:35.657Z,2.63
2023-05-10T09:22:03.443Z,3.40
2023-05-10T09:24:31.336Z,4.32
2023-05-10T09:26:59.551Z,2.72
2023-05-10T09:29:26.604Z,1.70
2023-05-10T09:31:55.738Z,5.30
2023-05-10T09:34:30.992Z,2.22
2023-05-10T09:37:04.608Z,7.00
2023-05-10T09:39:36.968Z,3.53
2023-05-10T09:42:07.402Z,5.68
2023-05-10T09:44:35.187Z,3.67
2023-05-10T09:47:05.410Z,8.18
2023-05-10T09:49:32.691Z,6.35
2023-05-10T09:52:04.545Z,2.67
2023-05-10T09:54:32.073Z,6.97
2023-05-10T09:56:58.924Z,4.82
2023-05-10T09:59:29.976Z,4.53
2023-05-10T10:01:59.176Z,4.60
2023-05-10T10:04:27.377Z,5.32
2023-05-10T10:07:05.145Z,8.02
2023-05-10T10:09:33.123Z,12.25
2023-05-10T10:12:04.171Z,15.82
2023-05-10T10:14:31.849Z,8.07
2023-05-10T10:19:34.753Z,6.10
2023-05-10T10:22:01.874Z,5.10
2023-05-10T10:24:28.883Z,5.28
2023-05-10T10:27:05.459Z,5.93
2023-05-10T10:29:49.105Z,7.90
2023-05-10T10:32:34.171Z,6.50
2023-05-10T10:35:01.468Z,5.10
2023-05-10T10:37:45.386Z,4.43
2023-05-10T10:40:27.980Z,5.45
2023-05-10T10:42:56.265Z,4.35
2023-05-10T10:45:23.795Z,7.05
2023-05-10T10:48:14.646Z,8.30
2023-05-10T10:50:46.767Z,4.85
2023-05-10T10:53:14.244Z,9.60
2023-05-10T10:55:49.182Z,8.90
2023-05-10T10:58:32.014Z,8.98
2023-05-10T11:01:19.213Z,7.80
2023-05-10T11:04:04.286Z,7.25
2023-05-10T11:06:35.371Z,5.57
2023-05-10T11:09:10.161Z,8.77
2023-05-10T11:11:49.283Z,4.85
2023-05-10T11:14:21.494Z,6.25
2023-05-10T11:16:48.434Z,7.57
2023-05-10T11:19:17.619Z,11.90
2023-05-10T11:21:48.976Z,12.27
2023-05-10T11:24:24.298Z,10.45
2023-05-10T11:26:52.917Z,7.40
2023-05-10T11:29:20.221Z,7.28
2023-05-10T11:31:48.597Z,8.82
2023-05-10T11:34:34.666Z,5.82
2023-05-10T11:37:02.670Z,8.02
2023-05-10T11:39:31.326Z,5.95
2023-05-10T11:41:59.425Z,5.97
2023-05-10T11:44:33.385Z,16.05
2023-05-10T11:47:03.504Z,7.97
2023-05-10T11:49:30.616Z,4.32
2023-05-10T11:52:08.062Z,6.15
2023-05-10T11:54:37.874Z,4.50
2023-05-10T11:57:05.326Z,10.73
2023-05-10T11:59:32.234Z,9.20
2023-05-10T12:01:59.246Z,7.43
2023-05-10T12:04:26.834Z,5.28
2023-05-10T12:06:54.176Z,9.88
2023-05-10T12:09:35.330Z,7.88
2023-05-10T12:12:07.020Z,4.57
2023-05-10T12:14:36.459Z,7.43
2023-05-10T12:17:03.462Z,6.13
2023-05-10T12:19:38.600Z,4.03
2023-05-10T12:22:07.001Z,5.00
2023-05-10T12:24:39.354Z,7.05
2023-05-10T12:30:05.570Z,6.30
2023-05-10T12:32:45.437Z,4.13
2023-05-10T12:35:12.823Z,5.30
2023-05-10T12:37:40.320Z,4.03
2023-05-10T12:40:09.194Z,4.05
2023-05-10T12:42:37.189Z,4.88
2023-05-10T12:45:05.538Z,5.78
2023-05-10T12:47:35.917Z,6.05
2023-05-10T12:50:03.814Z,4.05
2023-05-10T12:52:33.230Z,18.35
2023-05-10T12:55:04.211Z,16.42
2023-05-10T12:57:36.815Z,9.13
2023-05-10T13:00:06.124Z,8.65
2023-05-10T13:02:33.263Z,4.38
2023-05-10T13:05:00.341Z,6.15
2023-05-10T13:07:27.333Z,5.47
2023-05-10T13:09:54.178Z,5.35
2023-05-10T13:12:21.182Z,3.83
2023-05-10T13:14:48.250Z,2.63
2023-05-10T13:17:15.186Z,5.90
2023-05-10T13:19:42.113Z,8.38
2023-05-10T13:22:09.036Z,4.47
2023-05-10T13:24:36.106Z,2.58
2023-05-10T13:27:03.022Z,7.82
2023-05-10T13:29:29.976Z,5.32
2023-05-10T13:31:57.326Z,4.00
2023-05-10T13:34:25.323Z,7.00
2023-05-10T13:36:53.976Z,8.10
2023-05-10T13:39:21.769Z,5.97
2023-05-10T13:41:48.717Z,5.20
2023-05-10T13:44:16.227Z,3.92
2023-05-10T13:46:43.490Z,5.25
2023-05-10T13:49:11.021Z,4.30
2023-05-10T13:51:37.992Z,6.13
2023-05-10T13:54:04.914Z,9.52
2023-05-10T13:56:31.867Z,6.47
2023-05-10T13:58:59.493Z,8.18
2023-05-10T14:01:26.545Z,3.42
2023-05-10T14:03:53.494Z,3.47
2023-05-10T14:06:20.496Z,10.50
2023-05-10T14:08:47.417Z,9.52
2023-05-10T14:11:14.725Z,11.30
2023-05-10T14:13:42.128Z,9.77
2023-05-10T14:16:10.533Z,10.23
2023-05-10T14:18:37.525Z,10.23
2023-05-10T14:21:07.188Z,11.82
2023-05-10T14:23:34.126Z,5.85
2023-05-10T14:26:01.022Z,10.23
2023-05-10T14:28:28.039Z,7.40
2023-05-10T14:30:55.121Z,4.47
2023-05-10T14:33:22.149Z,10.05
2023-05-10T14:35:49.259Z,8.05
2023-05-10T14:38:16.296Z,6.90
2023-05-10T14:40:44.119Z,7.97
2023-05-10T14:43:11.061Z,14.88
2023-05-10T14:45:38.128Z,15.40
2023-05-10T14:48:05.991Z,6.05
2023-05-10T14:50:36.973Z,7.95
2023-05-10T14:53:04.606Z,5.47
2023-05-10T14:55:31.580Z,7.05
2023-05-10T14:57:59.386Z,8.23
2023-05-10T15:00:26.706Z,9.52
2023-05-10T15:02:54.329Z,12.10
2023-05-10T15:05:21.855Z,13.82
2023-05-10T15:07:49.628Z,11.52
2023-05-10T15:10:16.753Z,11.73
2023-05-10T15:12:43.733Z,8.02
2023-05-10T15:15:11.071Z,10.32
2023-05-10T15:17:38.252Z,11.80
2023-05-10T15:20:05.859Z,13.93
2023-05-10T15:22:34.372Z,4.85
2023-05-10T15:25:01.494Z,7.57
2023-05-10T15:27:29.164Z,12.60
2023-05-10T15:29:56.349Z,33.80
2023-05-10T15:32:23.353Z,16.63
2023-05-10T15:34:50.276Z,10.68
2023-05-10T15:37:17.175Z,10.65
2023-05-10T15:39:45.466Z,12.60
2023-05-10T15:42:13.346Z,22.73
2023-05-10T15:44:40.274Z,12.43
2023-05-10T15:47:07.284Z,11.70
2023-05-10T15:49:34.834Z,15.70
2023-05-10T15:52:02.103Z,33.78
2023-05-10T15:54:29.135Z,24.80
2023-05-10T15:56:56.456Z,26.42
2023-05-10T15:59:23.423Z,18.55
2023-05-10T16:01:51.148Z,11.77
2023-05-10T16:04:18.412Z,16.38
2023-05-10T16:06:45.981Z,6.90
2023-05-10T16:09:12.980Z,9.85
2023-05-10T16:11:40.342Z,10.18
2023-05-10T16:14:07.520Z,10.30
2023-05-10T16:16:35.815Z,8.75
2023-05-10T16:19:04.025Z,7.20
2023-05-10T16:21:34.378Z,15.52
2023-05-10T16:24:04.005Z,11.27
2023-05-10T16:26:31.012Z,15.20
2023-05-10T16:28:58.067Z,19.83
2023-05-10T16:31:25.137Z,9.27
2023-05-10T16:33:52.143Z,15.07
2023-05-10T16:36:19.218Z,12.52
2023-05-10T16:38:46.146Z,16.92
2023-05-10T16:41:13.189Z,13.68
2023-05-10T16:43:40.415Z,8.85
2023-05-10T16:46:13.483Z,12.40
2023-05-10T16:48:40.616Z,12.45
2023-05-10T16:51:07.988Z,16.15
2023-05-10T16:53:35.289Z,22.23
2023-05-10T16:56:04.742Z,6.97
2023-05-10T16:58:36.967Z,10.95
2023-05-10T17:01:05.989Z,12.77
2023-05-10T17:03:34.983Z,11.15
2023-05-10T17:06:03.442Z,9.50
2023-05-10T17:08:33.037Z,10.35
2023-05-10T17:11:05.237Z,14.73
2023-05-10T17:13:33.372Z,12.02
2023-05-10T17:16:04.484Z,13.65
2023-05-10T17:18:31.793Z,13.43
2023-05-10T17:20:58.754Z,14.80
2023-05-10T17:23:25.759Z,17.88
2023-05-10T17:25:53.216Z,18.02
2023-05-10T17:28:20.696Z,13.27
2023-05-10T17:30:47.589Z,28.35
2023-05-10T17:33:14.602Z,29.02
2023-05-10T17:35:47.350Z,22.95
2023-05-10T17:38:14.541Z,15.70
2023-05-10T17:40:42.180Z,13.43
2023-05-10T17:43:09.331Z,31.95
2023-05-10T17:45:36.731Z,29.60
2023-05-10T17:48:04.305Z,16.63
2023-05-10T17:50:32.730Z,16.83
2023-05-10T17:52:59.590Z,12.68
2023-05-10T17:55:27.246Z,21.60
2023-05-10T17:57:54.280Z,24.00
2023-05-10T18:00:21.315Z,13.63
2023-05-10T18:02:48.291Z,10.90
2023-05-10T18:05:17.034Z,14.10
2023-05-10T18:07:44.671Z,13.45
2023-05-10T18:10:11.850Z,16.27
2023-05-10T18:12:39.019Z,14.75
2023-05-10T18:15:06.441Z,20.10
2023-05-10T18:17:35.088Z,21.85
2023-05-10T18:20:02.409Z,26.35
2023-05-10T18:22:30.073Z,16.58
2023-05-10T18:24:56.933Z,22.23
2023-05-10T18:27:23.894Z,19.45
2023-05-10T18:29:51.822Z,22.25
2023-05-10T18:32:18.799Z,21.85
2023-05-10T18:34:46.000Z,22.67
2023-05-10T18:37:13.025Z,23.52
2023-05-10T18:39:40.129Z,10.73
2023-05-10T18:42:07.938Z,10.35
2023-05-10T18:44:37.848Z,9.85
2023-05-10T18:47:04.936Z,7.75
2023-05-10T18:49:32.257Z,12.60
2023-05-10T18:51:59.295Z,9.95
2023-05-10T18:54:26.927Z,9.38
2023-05-10T18:56:53.898Z,9.25
2023-05-10T18:59:20.938Z,5.95
2023-05-10T19:01:55.717Z,5.20
2023-05-10T19:04:27.718Z,7.18
2023-05-10T19:06:56.058Z,8.07
2023-05-10T19:09:23.834Z,7.00
2023-05-10T19:11:51.972Z,5.13
2023-05-10T19:14:19.125Z,4.95
2023-05-10T19:16:49.073Z,7.70
2023-05-10T19:19:16.232Z,7.40
2023-05-10T19:21:43.374Z,10.80
2023-05-10T19:24:11.986Z,8.00
2023-05-10T19:26:38.900Z,17.80
2023-05-10T19:29:06.218Z,15.20
2023-05-10T19:31:34.709Z,9.55
2023-05-10T19:34:03.025Z,12.27
2023-05-10T19:36:30.049Z,10.35
2023-05-10T19:38:57.091Z,13.18
2023-05-10T19:41:24.202Z,13.98
2023-05-10T19:43:52.828Z,14.50
2023-05-10T19:46:20.344Z,15.20
2023-05-10T19:48:47.631Z,26.83
2023-05-10T19:51:15.021Z,17.02
2023-05-10T19:53:45.137Z,24.45
2023-05-10T19:56:13.246Z,15.63
2023-05-10T19:58:40.578Z,12.05
2023-05-10T20:01:08.330Z,18.33
2023-05-10T20:03:36.345Z,21.23
2023-05-10T20:06:04.306Z,17.52
2023-05-10T20:08:31.634Z,20.10
2023-05-10T20:11:00.781Z,21.77
2023-05-10T20:13:27.911Z,17.00
2023-05-10T20:15:59.648Z,18.30
2023-05-10T20:18:27.244Z,15.68
2023-05-10T20:21:00.591Z,18.25
2023-05-10T20:23:27.767Z,15.20
2023-05-10T20:25:55.111Z,17.55
2023-05-10T20:28:25.420Z,23.90
2023-05-10T20:30:54.161Z,24.05
2023-05-10T20:33:24.120Z,15.95
2023-05-10T20:35:51.485Z,22.67
2023-05-10T20:38:18.730Z,17.77
2023-05-10T20:40:46.622Z,14.98
2023-05-10T20:43:13.808Z,17.70
2023-05-10T20:45:40.767Z,20.15
2023-05-10T20:48:10.264Z,17.83
2023-05-10T20:50:37.199Z,20.63
2023-05-10T20:53:04.213Z,19.60
2023-05-10T20:55:31.216Z,15.75
2023-05-10T20:57:58.113Z,21.63
2023-05-10T21:00:25.202Z,16.30
2023-05-10T21:02:52.116Z,19.58
2023-05-10T21:05:19.141Z,16.85
2023-05-10T21:07:46.192Z,17.38
2023-05-10T21:10:13.454Z,15.80
2023-05-10T21:12:40.553Z,24.88
2023-05-10T21:15:08.246Z,22.52
2023-05-10T21:17:35.169Z,20.35
2023-05-10T21:20:02.331Z,28.05
2023-05-10T21:22:30.752Z,16.10
2023-05-10T21:24:58.014Z,24.02
2023-05-10T21:27:24.979Z,28.75
2023-05-10T21:29:52.318Z,19.92
2023-05-10T21:32:20.317Z,34.03
2023-05-10T21:34:47.314Z,22.10
2023-05-10T21:37:16.303Z,18.88
2023-05-10T21:39:43.791Z,22.15
2023-05-10T21:42:10.791Z,17.67
2023-05-10T21:44:38.786Z,23.95
2023-05-10T21:47:05.715Z,30.10
2023-05-10T21:49:32.626Z,24.83
2023-05-10T21:51:59.564Z,17.83
2023-05-10T21:54:26.462Z,16.65
2023-05-10T21:56:53.768Z,28.98
2023-05-10T21:59:21.811Z,23.90
2023-05-10T22:01:48.855Z,27.05
2023-05-10T22:04:15.997Z,19.95
2023-05-10T22:06:43.016Z,24.88
2023-05-10T22:09:10.242Z,17.73
2023-05-10T22:11:38.430Z,26.77
2023-05-10T22:14:05.323Z,22.75
2023-05-10T22:16:32.320Z,20.45
2023-05-10T22:18:59.640Z,27.08
2023-05-10T22:21:26.565Z,21.80
2023-05-10T22:23:53.459Z,29.80
2023-05-10T22:26:21.624Z,33.08
2023-05-10T22:28:48.524Z,27.23
2023-05-10T22:31:15.433Z,24.15
2023-05-10T22:33:42.398Z,34.70
2023-05-10T22:36:09.376Z,28.75
2023-05-10T22:38:36.288Z,36.00
2023-05-10T22:41:03.328Z,26.80
2023-05-10T22:43:33.601Z,24.38
2023-05-10T22:46:00.500Z,43.28
2023-05-10T22:48:28.764Z,34.13
2023-05-10T22:50:56.309Z,30.13
2023-05-10T22:53:23.350Z,31.10
2023-05-10T22:55:51.526Z,22.60
2023-05-10T22:58:21.295Z,32.85
2023-05-10T23:01:03.277Z,41.45
2023-05-10T23:03:30.673Z,17.77
2023-05-10T23:05:58.094Z,35.38
2023-05-10T23:08:25.503Z,34.00
2023-05-10T23:10:52.590Z,34.22
2023-05-10T23:13:21.145Z,36.10
2023-05-10T23:15:48.392Z,30.20
2023-05-10T23:18:16.130Z,31.00
2023-05-10T23:20:43.316Z,23.15
2023-05-10T23:23:10.854Z,25.90
2023-05-10T23:25:38.266Z,27.35
2023-05-10T23:28:05.735Z,35.17
2023-05-10T23:30:32.641Z,22.85
2023-05-10T23:32:59.728Z,27.00
2023-05-10T23:35:26.615Z,29.30
2023-05-10T23:37:54.433Z,21.15
2023-05-10T23:40:21.691Z,28.63
2023-05-10T23:42:48.763Z,22.05
2023-05-10T23:45:15.836Z,26.92
2023-05-10T23:47:42.931Z,23.30
2023-05-10T23:50:11.191Z,25.42
2023-05-10T23:52:38.297Z,14.20
2023-05-10T23:55:05.601Z,19.73
2023-05-10T23:57:36.272Z,27.73
